createdAt,value
2019-04-23T00:00:10.275Z,3.62
2019-04-23T00:02:44.641Z,7.83
2019-04-23T00:05:08.272Z,5.97
2019-04-23T00:10:26.287Z,5.05
2019-04-23T00:12:43.682Z,5.00
2019-04-23T00:15:07.394Z,5.30
2019-04-23T00:17:40.282Z,5.00
2019-04-23T00:20:10.030Z,4.47
2019-04-23T00:22:49.661Z,3.92
2019-04-23T00:25:46.542Z,8.15
2019-04-23T00:27:59.448Z,6.53
2019-04-23T00:30:32.116Z,5.72
2019-04-23T00:32:51.639Z,7.87
2019-04-23T00:35:19.151Z,3.42
2019-04-23T00:37:51.462Z,5.33
2019-04-23T00:40:23.068Z,4.58
2019-04-23T00:45:19.554Z,3.70
2019-04-23T00:47:49.863Z,6.75
2019-04-23T00:52:42.185Z,6.87
2019-04-23T00:55:17.671Z,3.95
2019-04-23T01:00:24.019Z,2.42
2019-04-23T01:02:37.227Z,6.10
2019-04-23T01:05:14.800Z,5.50
2019-04-23T01:10:10.280Z,2.15
2019-04-23T01:12:38.065Z,2.33
2019-04-23T01:15:04.310Z,3.12
2019-04-23T01:17:39.559Z,3.58
2019-04-23T01:20:08.117Z,6.92
2019-04-23T01:22:25.164Z,2.77
2019-04-23T01:25:04.735Z,4.30
2019-04-23T01:27:55.907Z,4.40
2019-04-23T01:30:45.412Z,2.92
2019-04-23T01:32:54.684Z,6.28
2019-04-23T01:35:33.530Z,4.45
2019-04-23T01:37:55.683Z,3.72
2019-04-23T01:40:27.262Z,8.60
2019-04-23T01:45:25.948Z,3.77
2019-04-23T01:47:53.149Z,3.72
2019-04-23T01:55:21.377Z,3.72
2019-04-23T02:00:18.244Z,3.85
2019-04-23T02:05:16.028Z,5.35
2019-04-23T02:07:50.728Z,3.20
2019-04-23T02:10:14.168Z,3.52
2019-04-23T02:12:42.046Z,4.67
2019-04-23T02:15:12.117Z,2.42
2019-04-23T02:17:39.791Z,5.00
2019-04-23T02:20:08.882Z,3.27
2019-04-23T02:22:38.181Z,3.30
2019-04-23T02:25:18.005Z,3.30
2019-04-23T02:27:43.793Z,4.83
2019-04-23T02:30:37.569Z,4.00
2019-04-23T02:32:45.875Z,3.30
2019-04-23T02:35:29.671Z,6.65
2019-04-23T02:37:54.177Z,6.78
2019-04-23T02:40:13.960Z,2.33
2019-04-23T02:45:10.336Z,3.83
2019-04-23T02:55:08.763Z,5.25
2019-04-23T03:02:43.729Z,1.92
2019-04-23T03:04:57.431Z,4.85
2019-04-23T03:07:36.601Z,3.12
2019-04-23T03:15:00.674Z,3.67
2019-04-23T03:17:27.281Z,3.22
2019-04-23T03:20:07.925Z,3.02
2019-04-23T03:22:58.218Z,2.75
2019-04-23T03:25:16.788Z,3.02
2019-04-23T03:27:41.953Z,3.08
2019-04-23T03:30:29.574Z,3.00
2019-04-23T03:33:08.428Z,3.87
2019-04-23T03:35:09.700Z,2.47
2019-04-23T03:37:40.155Z,4.55
2019-04-23T03:42:42.408Z,4.08
2019-04-23T03:45:16.649Z,2.70
2019-04-23T03:47:45.205Z,6.33
2019-04-23T03:52:35.464Z,3.90
2019-04-23T03:55:05.762Z,3.02
2019-04-23T03:57:40.247Z,5.10
2019-04-23T04:00:02.535Z,2.90
2019-04-23T04:02:39.968Z,4.05
2019-04-23T04:04:49.835Z,2.62
2019-04-23T04:17:19.594Z,3.20
2019-04-23T04:19:47.888Z,2.95
2019-04-23T04:32:06.108Z,5.53
2019-04-23T04:35:11.092Z,2.80
2019-04-23T04:39:43.543Z,3.08
2019-04-23T04:42:12.384Z,2.67
2019-04-23T04:44:41.197Z,2.90
2019-04-23T04:46:59.260Z,3.77
2019-04-23T04:49:44.416Z,3.72
2019-04-23T04:57:02.615Z,6.70
2019-04-23T04:59:22.663Z,3.10
2019-04-23T05:02:01.628Z,5.22
2019-04-23T05:04:24.366Z,3.25
2019-04-23T05:07:04.455Z,4.47
2019-04-23T05:11:54.281Z,5.97
2019-04-23T05:14:13.402Z,6.12
2019-04-23T05:24:23.203Z,3.87
2019-04-23T05:26:39.522Z,9.18
2019-04-23T05:31:33.743Z,4.05
2019-04-23T05:34:14.529Z,8.63
2019-04-23T05:41:38.439Z,19.55
2019-04-23T05:46:33.035Z,4.42
2019-04-23T05:48:59.549Z,5.10
2019-04-23T05:51:40.138Z,5.58
2019-04-23T05:54:00.479Z,8.25
2019-04-23T05:56:27.728Z,4.08
2019-04-23T05:59:02.828Z,5.95
2019-04-23T06:01:51.176Z,3.30
2019-04-23T06:04:03.971Z,4.75
2019-04-23T06:06:36.206Z,4.47
2019-04-23T06:08:53.211Z,5.72
2019-04-23T06:11:28.456Z,6.65
2019-04-23T06:13:58.760Z,5.58
2019-04-23T06:16:25.255Z,4.10
2019-04-23T06:18:44.396Z,2.90
2019-04-23T06:21:15.287Z,6.47
2019-04-23T06:24:06.310Z,5.78
2019-04-23T06:28:46.762Z,4.42
2019-04-23T06:31:09.746Z,6.22
2019-04-23T06:33:59.376Z,7.03
2019-04-23T06:36:15.582Z,7.15
2019-04-23T06:41:06.780Z,6.92
2019-04-23T06:43:38.321Z,4.97
2019-04-23T06:45:57.515Z,4.80
2019-04-23T06:51:07.519Z,11.18
2019-04-23T06:53:24.632Z,7.45
2019-04-23T06:55:55.428Z,10.68
2019-04-23T07:00:55.843Z,3.83
2019-04-23T07:03:33.589Z,8.00
2019-04-23T07:08:43.006Z,4.42
2019-04-23T07:11:08.345Z,3.00
2019-04-23T07:13:44.624Z,8.10
2019-04-23T07:15:58.726Z,5.80
2019-04-23T07:18:31.179Z,5.60
2019-04-23T07:21:06.501Z,4.72
2019-04-23T07:23:37.630Z,5.75
2019-04-23T07:26:08.020Z,5.08
2019-04-23T07:28:27.817Z,5.72
2019-04-23T07:31:00.242Z,4.45
2019-04-23T07:33:27.911Z,6.30
2019-04-23T07:35:52.018Z,4.53
2019-04-23T07:38:32.736Z,6.65
2019-04-23T07:41:18.615Z,7.37
2019-04-23T07:43:39.768Z,4.67
2019-04-23T07:46:29.916Z,9.90
2019-04-23T07:49:01.152Z,9.85
2019-04-23T07:51:29.428Z,8.03
2019-04-23T07:54:01.778Z,6.28
2019-04-23T07:56:21.422Z,4.70
2019-04-23T07:58:44.567Z,5.25
2019-04-23T08:01:23.035Z,6.62
2019-04-23T08:03:48.247Z,10.15
2019-04-23T08:06:12.020Z,3.95
2019-04-23T08:13:47.737Z,5.55
2019-04-23T08:16:25.998Z,6.95
2019-04-23T08:18:45.384Z,6.08
2019-04-23T08:21:10.546Z,5.30
2019-04-23T08:23:54.154Z,5.12
2019-04-23T08:26:34.942Z,4.60
2019-04-23T08:31:38.770Z,7.20
2019-04-23T08:34:11.074Z,3.75
2019-04-23T08:36:34.476Z,6.35
2019-04-23T08:38:56.832Z,6.60
2019-04-23T08:44:15.625Z,3.75
2019-04-23T08:47:05.228Z,6.15
2019-04-23T08:49:31.273Z,8.23
2019-04-23T08:52:04.131Z,5.22
2019-04-23T08:54:38.406Z,7.78
2019-04-23T08:56:54.779Z,4.50
2019-04-23T08:59:33.283Z,6.10
2019-04-23T09:02:07.705Z,6.17
2019-04-23T09:04:21.544Z,7.62
2019-04-23T09:06:50.216Z,7.75
2019-04-23T09:09:20.070Z,7.35
2019-04-23T09:11:56.259Z,7.53
2019-04-23T09:14:05.327Z,4.65
2019-04-23T09:16:44.380Z,6.47
2019-04-23T09:21:45.897Z,7.72
2019-04-23T09:24:03.370Z,4.75
2019-04-23T09:26:32.746Z,8.78
2019-04-23T09:29:09.608Z,8.60
2019-04-23T09:34:31.545Z,8.30
2019-04-23T09:36:59.632Z,15.98
2019-04-23T09:39:30.756Z,12.03
2019-04-23T09:42:05.323Z,8.60
2019-04-23T09:47:14.003Z,12.10
2019-04-23T09:49:44.306Z,7.22
2019-04-23T09:52:14.583Z,9.13
2019-04-23T09:54:42.097Z,10.40
2019-04-23T09:56:57.373Z,7.95
2019-04-23T10:01:49.837Z,11.18
2019-04-23T10:04:18.620Z,9.05
2019-04-23T10:06:34.572Z,7.75
2019-04-23T10:09:02.124Z,5.28
2019-04-23T10:11:28.264Z,7.72
2019-04-23T10:13:56.252Z,6.87
2019-04-23T10:16:25.780Z,10.32
2019-04-23T10:18:53.053Z,10.13
2019-04-23T10:21:19.690Z,11.12
2019-04-23T10:23:47.470Z,10.53
2019-04-23T10:26:14.353Z,11.50
2019-04-23T10:28:44.165Z,8.98
2019-04-23T10:31:12.505Z,11.28
2019-04-23T10:33:39.940Z,9.18
2019-04-23T10:36:11.284Z,10.98
2019-04-23T10:38:36.402Z,11.70
2019-04-23T10:41:04.416Z,9.58
2019-04-23T10:43:34.009Z,7.72
2019-04-23T10:46:38.031Z,6.37
2019-04-23T10:52:07.137Z,6.78
2019-04-23T10:54:39.577Z,6.70
2019-04-23T10:56:51.649Z,7.95
2019-04-23T10:59:38.831Z,6.75
2019-04-23T11:02:24.072Z,8.33
2019-04-23T11:04:47.348Z,8.98
2019-04-23T11:09:52.828Z,8.90
2019-04-23T11:12:24.268Z,6.55
2019-04-23T11:14:44.448Z,22.48
2019-04-23T11:17:03.643Z,9.93
2019-04-23T11:19:39.969Z,16.42
2019-04-23T11:22:22.780Z,8.63
2019-04-23T11:27:10.379Z,10.45
2019-04-23T11:29:35.631Z,6.22
2019-04-23T11:32:06.762Z,6.70
2019-04-23T11:34:47.814Z,8.00
2019-04-23T11:37:03.599Z,10.05
2019-04-23T11:39:22.650Z,9.88
2019-04-23T11:41:57.997Z,5.90
2019-04-23T11:44:26.411Z,6.25
2019-04-23T11:49:34.630Z,8.50
2019-04-23T11:51:56.426Z,10.75
2019-04-23T11:57:07.805Z,7.40
2019-04-23T11:59:22.969Z,6.05
2019-04-23T12:01:46.497Z,8.98
2019-04-23T12:04:26.305Z,7.73
2019-04-23T12:07:14.006Z,6.45
2019-04-23T12:09:46.471Z,9.58
2019-04-23T12:12:17.200Z,10.53
2019-04-23T12:17:27.265Z,9.58
2019-04-23T12:25:02.292Z,9.00
2019-04-23T12:37:29.698Z,6.25
2019-04-23T12:40:00.979Z,8.38
2019-04-23T12:42:41.305Z,7.85
2019-04-23T12:45:00.036Z,8.78
2019-04-23T12:47:39.543Z,10.43
2019-04-23T12:50:13.544Z,12.58
2019-04-23T12:52:17.088Z,9.93
2019-04-23T12:55:06.765Z,8.18
2019-04-23T12:59:47.757Z,9.13
2019-04-23T13:02:15.771Z,16.40
2019-04-23T13:04:42.086Z,10.55
2019-04-23T13:07:13.136Z,11.78
2019-04-23T13:09:48.253Z,9.38
2019-04-23T13:12:20.544Z,13.50
2019-04-23T13:14:41.649Z,7.47
2019-04-23T13:17:11.515Z,14.55
2019-04-23T13:19:51.378Z,7.95
2019-04-23T13:22:16.565Z,9.18
2019-04-23T13:27:30.558Z,10.63
2019-04-23T13:29:56.757Z,7.20
2019-04-23T13:32:21.596Z,7.97
2019-04-23T13:34:58.895Z,8.80
2019-04-23T13:37:19.079Z,8.63
2019-04-23T13:39:44.048Z,10.93
2019-04-23T13:42:22.756Z,9.88
2019-04-23T13:44:42.716Z,10.75
2019-04-23T13:47:19.971Z,7.83
2019-04-23T13:49:43.135Z,14.23
2019-04-23T13:52:37.852Z,14.53
2019-04-23T13:54:56.374Z,7.58
2019-04-23T13:57:32.505Z,9.60
2019-04-23T13:59:48.494Z,9.10
2019-04-23T14:02:08.994Z,13.93
2019-04-23T14:04:39.011Z,14.53
2019-04-23T14:07:10.348Z,10.90
2019-04-23T14:12:09.171Z,12.23
2019-04-23T14:14:47.593Z,12.33
2019-04-23T14:17:12.321Z,10.28
2019-04-23T14:19:32.039Z,11.65
2019-04-23T14:22:13.723Z,10.25
2019-04-23T14:24:38.125Z,12.05
2019-04-23T14:26:58.238Z,12.00
2019-04-23T14:29:31.894Z,13.88
2019-04-23T14:32:07.126Z,11.95
2019-04-23T14:34:43.974Z,12.50
2019-04-23T14:36:59.487Z,13.70
2019-04-23T14:41:53.355Z,15.85
2019-04-23T14:44:19.714Z,16.32
2019-04-23T14:49:19.092Z,12.18
2019-04-23T14:51:49.805Z,12.33
2019-04-23T14:54:23.134Z,17.35
2019-04-23T14:56:52.348Z,11.57
2019-04-23T14:59:10.529Z,12.53
2019-04-23T15:01:49.081Z,13.75
2019-04-23T15:04:10.912Z,11.15
2019-04-23T15:06:53.899Z,9.78
2019-04-23T15:11:59.697Z,17.12
2019-04-23T15:14:10.104Z,9.90
2019-04-23T15:16:46.634Z,10.03
2019-04-23T15:28:43.830Z,12.20
2019-04-23T15:31:33.093Z,10.55
2019-04-23T15:36:42.283Z,9.93
2019-04-23T15:39:08.775Z,11.40
2019-04-23T15:49:02.162Z,8.38
2019-04-23T15:51:31.023Z,8.80
2019-04-23T15:53:53.180Z,10.43
2019-04-23T15:56:32.895Z,13.50
2019-04-23T15:58:58.347Z,11.33
2019-04-23T16:03:20.539Z,10.78
2019-04-23T16:05:50.983Z,11.10
2019-04-23T16:08:51.829Z,7.83
2019-04-23T16:11:25.341Z,7.05
2019-04-23T16:14:05.789Z,10.00
2019-04-23T16:16:18.407Z,10.50
2019-04-23T16:19:09.597Z,7.90
2019-04-23T16:21:48.025Z,9.85
2019-04-23T16:24:08.174Z,9.03
2019-04-23T16:26:41.156Z,11.25
2019-04-23T16:31:41.371Z,8.93
2019-04-23T16:34:06.830Z,7.60
2019-04-23T16:36:23.140Z,8.88
2019-04-23T16:38:55.628Z,7.22
2019-04-23T16:43:59.848Z,9.20
2019-04-23T16:46:21.935Z,13.60
2019-04-23T16:51:27.976Z,7.83
2019-04-23T16:53:42.986Z,8.20
2019-04-23T16:58:42.257Z,9.88
2019-04-23T17:03:40.236Z,9.45
2019-04-23T17:06:10.338Z,11.78
2019-04-23T17:08:55.157Z,9.65
2019-04-23T17:11:10.134Z,9.90
2019-04-23T17:13:30.863Z,9.38
2019-04-23T17:16:09.111Z,12.53
2019-04-23T17:18:31.306Z,8.73
2019-04-23T17:20:56.320Z,6.85
2019-04-23T17:25:58.894Z,12.37
2019-04-23T17:28:21.961Z,13.10
2019-04-23T17:31:16.861Z,13.03
2019-04-23T17:33:33.191Z,10.00
2019-04-23T17:36:15.221Z,10.93
2019-04-23T17:38:36.147Z,13.03
2019-04-23T17:41:05.797Z,11.28
2019-04-23T17:43:33.144Z,12.35
2019-04-23T17:45:56.623Z,13.85
2019-04-23T17:48:27.204Z,10.03
2019-04-23T17:51:04.112Z,9.23
2019-04-23T17:53:29.754Z,8.48
2019-04-23T17:56:08.773Z,10.48
2019-04-23T17:58:30.085Z,7.87
2019-04-23T18:03:30.519Z,9.88
2019-04-23T18:06:03.450Z,10.30
2019-04-23T18:08:23.218Z,7.35
2019-04-23T18:10:59.473Z,9.83
2019-04-23T18:13:22.443Z,8.20
2019-04-23T18:15:57.192Z,8.30
2019-04-23T18:18:29.135Z,8.30
2019-04-23T18:21:35.696Z,7.65
2019-04-23T18:24:08.202Z,8.48
2019-04-23T18:26:36.019Z,10.18
2019-04-23T18:29:08.458Z,12.47
2019-04-23T18:31:31.851Z,9.35
2019-04-23T18:36:33.652Z,12.97
2019-04-23T18:41:35.226Z,16.27
2019-04-23T18:48:59.782Z,12.68
2019-04-23T18:51:21.211Z,12.37
2019-04-23T18:54:07.412Z,12.65
2019-04-23T19:01:36.693Z,9.35
2019-04-23T19:09:03.186Z,9.55
2019-04-23T19:11:51.217Z,8.93
2019-04-23T19:16:41.578Z,9.00
2019-04-23T19:19:06.925Z,12.07
2019-04-23T19:21:47.336Z,8.38
2019-04-23T19:23:54.858Z,8.28
2019-04-23T19:26:54.809Z,8.50
2019-04-23T19:28:55.521Z,8.73
2019-04-23T19:31:33.238Z,7.95
2019-04-23T19:34:14.469Z,9.75
2019-04-23T19:36:39.939Z,11.75
2019-04-23T19:39:03.550Z,7.53
2019-04-23T19:41:37.261Z,8.18
2019-04-23T19:44:01.219Z,11.18
2019-04-23T19:46:41.879Z,9.48
2019-04-23T19:49:06.942Z,8.65
2019-04-23T19:51:25.460Z,10.58
2019-04-23T19:54:06.567Z,8.98
2019-04-23T19:58:51.760Z,10.75
2019-04-23T20:03:52.614Z,6.65
2019-04-23T20:06:18.690Z,9.48
2019-04-23T20:09:08.758Z,6.75
2019-04-23T20:11:15.450Z,13.28
2019-04-23T20:13:54.185Z,7.12
2019-04-23T20:16:10.980Z,8.80
2019-04-23T20:23:56.008Z,8.23
2019-04-23T20:32:26.637Z,10.13
2019-04-23T20:34:19.558Z,8.13
2019-04-23T20:36:36.811Z,9.70
2019-04-23T20:38:59.325Z,10.45
2019-04-23T20:41:39.850Z,6.62
2019-04-23T20:43:57.599Z,11.70
2019-04-23T20:46:27.997Z,11.18
2019-04-23T20:48:53.135Z,7.80
2019-04-23T20:51:29.163Z,10.05
2019-04-23T20:58:54.916Z,9.30
2019-04-23T21:01:22.327Z,7.17
2019-04-23T21:06:16.597Z,7.87
2019-04-23T21:09:20.217Z,7.87
2019-04-23T21:11:14.177Z,9.58
2019-04-23T21:16:31.120Z,10.70
2019-04-23T21:18:44.469Z,11.30
2019-04-23T21:21:13.573Z,8.53
2019-04-23T21:23:37.466Z,9.10
2019-04-23T21:25:57.210Z,11.88
2019-04-23T21:28:47.467Z,11.70
2019-04-23T21:33:50.792Z,9.63
2019-04-23T21:39:04.075Z,16.40
2019-04-23T21:41:51.006Z,12.05
2019-04-23T21:44:18.956Z,14.20
2019-04-23T21:46:47.912Z,11.00
2019-04-23T21:49:21.365Z,12.10
2019-04-23T21:51:49.300Z,8.48
2019-04-23T21:54:14.272Z,12.23
2019-04-23T22:06:35.554Z,11.05
2019-04-23T22:21:33.430Z,12.10
2019-04-23T22:24:02.722Z,10.35
2019-04-23T22:26:35.259Z,10.63
2019-04-23T22:29:04.454Z,8.38
2019-04-23T22:31:18.685Z,12.37
2019-04-23T22:33:54.915Z,14.38
2019-04-23T22:36:15.162Z,11.22
2019-04-23T22:38:41.678Z,8.75
2019-04-23T22:41:08.613Z,12.23
2019-04-23T22:43:57.716Z,10.53
2019-04-23T22:46:16.188Z,12.00
2019-04-23T22:48:47.615Z,11.53
2019-04-23T22:51:11.106Z,10.83
2019-04-23T22:53:35.692Z,12.75
2019-04-23T22:56:19.680Z,9.25
2019-04-23T22:58:48.316Z,12.60
2019-04-23T23:04:01.215Z,13.10
2019-04-23T23:06:36.861Z,8.35
2019-04-23T23:09:01.077Z,13.75
2019-04-23T23:11:13.992Z,11.15
2019-04-23T23:14:01.093Z,11.45
2019-04-23T23:16:14.802Z,13.28
2019-04-23T23:18:43.930Z,11.65
2019-04-23T23:23:43.939Z,12.05
2019-04-23T23:26:09.346Z,8.50
2019-04-23T23:28:40.965Z,13.62
2019-04-23T23:31:06.895Z,11.97
2019-04-23T23:33:43.136Z,10.60
2019-04-23T23:36:05.883Z,10.23
2019-04-23T23:46:17.304Z,9.48
2019-04-23T23:48:29.496Z,7.30
2019-04-23T23:51:09.624Z,8.55
2019-04-23T23:53:42.090Z,8.15
2019-04-23T23:56:05.449Z,9.05
2019-04-23T23:58:29.094Z,8.53
